sensor_id;sensor_type;location;lat;lon;timestamp;pressure;altitude;pressure_sealevel;temperature;humidity
6345;BME280;3205;42.666;23.264;2023-02-28T00:01:09;94773.38;;;7.68;100.00
6345;BME280;3205;42.666;23.264;2023-02-28T00:03:35;94770.13;;;7.62;100.00
6345;BME280;3205;42.666;23.264;2023-02-28T00:06:02;94768.91;;;7.68;100.00
6345;BME280;3205;42.666;23.264;2023-02-28T00:08:28;94781.25;;;7.59;100.00
6345;BME280;3205;42.666;23.264;2023-02-28T00:10:54;94768.59;;;7.61;100.00
6345;BME280;3205;42.666;23.264;2023-02-28T00:13:21;94777.06;;;7.58;100.00
6345;BME280;3205;42.666;23.264;2023-02-28T00:15:48;94772.47;;;7.64;100.00
6345;BME280;3205;42.666;23.264;2023-02-28T00:18:23;94778.31;;;7.61;100.00
6345;BME280;3205;42.666;23.264;2023-02-28T00:20:49;94778.03;;;7.62;100.00
6345;BME280;3205;42.666;23.264;2023-02-28T00:23:16;94789.50;;;7.66;100.00
6345;BME280;3205;42.666;23.264;2023-02-28T00:25:42;94793.34;;;7.69;100.00
6345;BME280;3205;42.666;23.264;2023-02-28T00:28:08;94795.09;;;7.73;100.00
6345;BME280;3205;42.666;23.264;2023-02-28T00:30:34;94787.19;;;7.73;100.00
6345;BME280;3205;42.666;23.264;2023-02-28T00:33:01;94791.56;;;7.86;100.00
6345;BME280;3205;42.666;23.264;2023-02-28T00:35:27;94793.56;;;7.81;100.00
6345;BME280;3205;42.666;23.264;2023-02-28T00:37:53;94790.31;;;7.75;100.00
6345;BME280;3205;42.666;23.264;2023-02-28T00:40:19;94796.19;;;7.81;100.00
6345;BME280;3205;42.666;23.264;2023-02-28T00:42:45;94791.88;;;7.85;100.00
6345;BME280;3205;42.666;23.264;2023-02-28T00:45:11;94793.84;;;7.71;100.00
6345;BME280;3205;42.666;23.264;2023-02-28T00:47:37;94791.03;;;7.67;100.00
6345;BME280;3205;42.666;23.264;2023-02-28T00:50:05;94791.03;;;7.67;100.00
6345;BME280;3205;42.666;23.264;2023-02-28T00:52:31;94798.13;;;7.58;100.00
6345;BME280;3205;42.666;23.264;2023-02-28T00:54:58;94782.47;;;7.53;100.00
6345;BME280;3205;42.666;23.264;2023-02-28T00:57:24;94786.59;;;7.46;100.00
6345;BME280;3205;42.666;23.264;2023-02-28T00:59:50;94785.63;;;7.34;100.00
6345;BME280;3205;42.666;23.264;2023-02-28T01:02:16;94779.75;;;7.36;100.00
6345;BME280;3205;42.666;23.264;2023-02-28T01:04:43;94780.97;;;7.31;100.00
6345;BME280;3205;42.666;23.264;2023-02-28T01:07:10;94778.34;;;7.31;100.00
6345;BME280;3205;42.666;23.264;2023-02-28T01:09:36;94780.50;;;7.29;100.00
6345;BME280;3205;42.666;23.264;2023-02-28T01:12:02;94782.91;;;7.17;100.00
6345;BME280;3205;42.666;23.264;2023-02-28T01:14:32;94785.25;;;7.18;100.00
6345;BME280;3205;42.666;23.264;2023-02-28T01:16:58;94776.34;;;7.06;100.00
6345;BME280;3205;42.666;23.264;2023-02-28T01:19:24;94779.34;;;7.13;100.00
6345;BME280;3205;42.666;23.264;2023-02-28T01:21:50;94783.50;;;7.14;100.00
6345;BME280;3205;42.666;23.264;2023-02-28T01:24:17;94780.88;;;7.14;100.00
6345;BME280;3205;42.666;23.264;2023-02-28T01:26:43;94782.91;;;7.17;100.00
6345;BME280;3205;42.666;23.264;2023-02-28T01:29:09;94785.84;;;7.15;100.00
6345;BME280;3205;42.666;23.264;2023-02-28T01:31:36;94776.22;;;7.11;100.00
6345;BME280;3205;42.666;23.264;2023-02-28T01:34:02;94777.34;;;7.18;100.00
6345;BME280;3205;42.666;23.264;2023-02-28T01:36:29;94772.94;;;7.05;100.00
6345;BME280;3205;42.666;23.264;2023-02-28T01:38:55;94785.06;;;7.15;100.00
6345;BME280;3205;42.666;23.264;2023-02-28T01:41:23;94777.91;;;7.07;100.00
6345;BME280;3205;42.666;23.264;2023-02-28T01:43:59;94793.44;;;6.95;100.00
6345;BME280;3205;42.666;23.264;2023-02-28T01:46:28;94795.91;;;6.91;100.00
6345;BME280;3205;42.666;23.264;2023-02-28T01:49:00;94788.25;;;6.81;100.00
6345;BME280;3205;42.666;23.264;2023-02-28T01:51:30;94792.13;;;6.84;100.00
6345;BME280;3205;42.666;23.264;2023-02-28T01:54:04;94802.50;;;6.89;100.00
6345;BME280;3205;42.666;23.264;2023-02-28T01:56:33;94793.44;;;6.73;100.00
6345;BME280;3205;42.666;23.264;2023-02-28T01:59:02;94801.91;;;6.70;100.00
6345;BME280;3205;42.666;23.264;2023-02-28T02:01:29;94794.88;;;6.79;100.00
6345;BME280;3205;42.666;23.264;2023-02-28T02:03:58;94795.63;;;6.79;100.00
6345;BME280;3205;42.666;23.264;2023-02-28T02:06:29;94794.63;;;6.89;100.00
6345;BME280;3205;42.666;23.264;2023-02-28T02:08:56;94786.56;;;6.85;100.00
6345;BME280;3205;42.666;23.264;2023-02-28T02:11:23;94785.38;;;6.91;100.00
6345;BME280;3205;42.666;23.264;2023-02-28T02:14:07;94784.38;;;7.01;100.00
6345;BME280;3205;42.666;23.264;2023-02-28T02:16:45;94785.78;;;7.07;100.00
6345;BME280;3205;42.666;23.264;2023-02-28T02:19:33;94789.53;;;7.14;100.00
6345;BME280;3205;42.666;23.264;2023-02-28T02:22:21;94783.72;;;7.26;100.00
6345;BME280;3205;42.666;23.264;2023-02-28T02:25:12;94782.22;;;7.33;100.00
6345;BME280;3205;42.666;23.264;2023-02-28T02:27:57;94781.44;;;7.33;100.00
6345;BME280;3205;42.666;23.264;2023-02-28T02:30:46;94780.97;;;7.31;100.00
6345;BME280;3205;42.666;23.264;2023-02-28T02:33:41;94790.22;;;7.28;100.00
6345;BME280;3205;42.666;23.264;2023-02-28T02:36:19;94782.22;;;7.33;100.00
6345;BME280;3205;42.666;23.264;2023-02-28T02:38:52;94778.94;;;7.28;100.00
6345;BME280;3205;42.666;23.264;2023-02-28T02:41:26;94786.88;;;7.36;100.00
6345;BME280;3205;42.666;23.264;2023-02-28T02:43:58;94789.69;;;7.39;100.00
6345;BME280;3205;42.666;23.264;2023-02-28T02:46:30;94798.63;;;7.38;100.00
6345;BME280;3205;42.666;23.264;2023-02-28T02:49:00;94783.81;;;7.42;100.00
6345;BME280;3205;42.666;23.264;2023-02-28T02:51:30;94801.88;;;7.36;100.00
6345;BME280;3205;42.666;23.264;2023-02-28T02:54:02;94791.22;;;7.40;100.00
6345;BME280;3205;42.666;23.264;2023-02-28T02:56:32;94787.28;;;7.30;100.00
6345;BME280;3205;42.666;23.264;2023-02-28T02:59:02;94796.81;;;7.39;100.00
6345;BME280;3205;42.666;23.264;2023-02-28T03:01:30;94795.41;;;7.41;100.00
6345;BME280;3205;42.666;23.264;2023-02-28T03:03:59;94800.38;;;7.43;100.00
6345;BME280;3205;42.666;23.264;2023-02-28T03:06:27;94802.09;;;7.47;100.00
6345;BME280;3205;42.666;23.264;2023-02-28T03:08:53;94795.25;;;7.38;100.00
6345;BME280;3205;42.666;23.264;2023-02-28T03:11:20;94807.97;;;7.23;100.00
6345;BME280;3205;42.666;23.264;2023-02-28T03:16:54;94819.28;;;7.23;100.00
6345;BME280;3205;42.666;23.264;2023-02-28T03:19:32;94826.94;;;7.11;100.00
6345;BME280;3205;42.666;23.264;2023-02-28T03:22:14;94832.25;;;6.98;100.00
6345;BME280;3205;42.666;23.264;2023-02-28T03:24:50;94834.03;;;7.11;100.00
6345;BME280;3205;42.666;23.264;2023-02-28T03:27:24;94832.63;;;7.05;100.00
6345;BME280;3205;42.666;23.264;2023-02-28T03:29:58;94830.16;;;6.86;100.00
6345;BME280;3205;42.666;23.264;2023-02-28T03:32:29;94832.84;;;6.73;100.00
6345;BME280;3205;42.666;23.264;2023-02-28T03:35:01;94831.16;;;6.77;100.00
6345;BME280;3205;42.666;23.264;2023-02-28T03:37:32;94833.84;;;6.85;100.00
6345;BME280;3205;42.666;23.264;2023-02-28T03:40:06;94832.91;;;6.81;100.00
6345;BME280;3205;42.666;23.264;2023-02-28T03:42:36;94839.66;;;6.74;100.00
6345;BME280;3205;42.666;23.264;2023-02-28T03:45:05;94834.41;;;6.74;100.00
6345;BME280;3205;42.666;23.264;2023-02-28T03:47:38;94835.84;;;6.80;100.00
6345;BME280;3205;42.666;23.264;2023-02-28T03:50:07;94841.81;;;6.94;100.00
6345;BME280;3205;42.666;23.264;2023-02-28T03:52:42;94841.13;;;7.02;100.00
6345;BME280;3205;42.666;23.264;2023-02-28T03:55:12;94843.28;;;6.86;100.00
6345;BME280;3205;42.666;23.264;2023-02-28T03:57:44;94854.81;;;6.77;100.00
6345;BME280;3205;42.666;23.264;2023-02-28T04:00:16;94846.16;;;6.76;100.00
6345;BME280;3205;42.666;23.264;2023-02-28T04:02:44;94839.38;;;6.97;100.00
6345;BME280;3205;42.666;23.264;2023-02-28T04:05:10;94846.25;;;7.07;100.00
6345;BME280;3205;42.666;23.264;2023-02-28T04:07:37;94849.50;;;7.12;100.00
6345;BME280;3205;42.666;23.264;2023-02-28T04:10:04;94843.31;;;7.08;100.00
6345;BME280;3205;42.666;23.264;2023-02-28T04:12:31;94841.44;;;7.09;100.00
6345;BME280;3205;42.666;23.264;2023-02-28T04:14:57;94836.97;;;7.09;100.00
6345;BME280;3205;42.666;23.264;2023-02-28T04:17:23;94840.38;;;7.10;100.00
6345;BME280;3205;42.666;23.264;2023-02-28T04:19:49;94842.41;;;6.91;100.00
6345;BME280;3205;42.666;23.264;2023-02-28T04:22:15;94844.19;;;6.82;100.00
6345;BME280;3205;42.666;23.264;2023-02-28T04:24:42;94845.81;;;6.91;100.00
6345;BME280;3205;42.666;23.264;2023-02-28T04:27:09;94840.66;;;6.86;100.00
6345;BME280;3205;42.666;23.264;2023-02-28T04:29:36;94839.56;;;7.01;100.00
6345;BME280;3205;42.666;23.264;2023-02-28T04:32:02;94831.50;;;6.97;100.00
6345;BME280;3205;42.666;23.264;2023-02-28T04:34:31;94835.19;;;6.96;100.00
6345;BME280;3205;42.666;23.264;2023-02-28T04:36:57;94847.97;;;6.89;100.00
6345;BME280;3205;42.666;23.264;2023-02-28T04:39:25;94839.91;;;6.86;100.00
6345;BME280;3205;42.666;23.264;2023-02-28T04:41:51;94847.78;;;6.86;100.00
6345;BME280;3205;42.666;23.264;2023-02-28T04:44:17;94847.47;;;6.87;100.00
6345;BME280;3205;42.666;23.264;2023-02-28T04:46:44;94849.41;;;6.95;100.00
6345;BME280;3205;42.666;23.264;2023-02-28T04:49:11;94856.88;;;7.02;100.00
6345;BME280;3205;42.666;23.264;2023-02-28T04:51:38;94867.13;;;6.90;100.00
6345;BME280;3205;42.666;23.264;2023-02-28T04:54:04;94869.75;;;6.90;100.00
6345;BME280;3205;42.666;23.264;2023-02-28T04:56:30;94862.81;;;7.16;100.00
6345;BME280;3205;42.666;23.264;2023-02-28T04:58:56;94875.28;;;7.02;100.00
6345;BME280;3205;42.666;23.264;2023-02-28T05:01:24;94875.34;;;7.32;100.00
6345;BME280;3205;42.666;23.264;2023-02-28T05:03:53;94876.31;;;7.44;100.00
6345;BME280;3205;42.666;23.264;2023-02-28T05:06:20;94876.16;;;7.41;100.00
6345;BME280;3205;42.666;23.264;2023-02-28T05:08:46;94881.22;;;7.37;100.00
6345;BME280;3205;42.666;23.264;2023-02-28T05:11:20;94881.72;;;7.39;100.00
6345;BME280;3205;42.666;23.264;2023-02-28T05:13:47;94873.66;;;7.36;100.00
6345;BME280;3205;42.666;23.264;2023-02-28T05:16:13;94876.94;;;7.20;100.00
6345;BME280;3205;42.666;23.264;2023-02-28T05:18:40;94880.47;;;7.15;100.00
6345;BME280;3205;42.666;23.264;2023-02-28T05:21:22;94883.94;;;7.24;100.00
6345;BME280;3205;42.666;23.264;2023-02-28T05:23:49;94888.59;;;7.27;100.00
6345;BME280;3205;42.666;23.264;2023-02-28T05:26:15;94899.00;;;7.32;100.00
6345;BME280;3205;42.666;23.264;2023-02-28T05:28:41;94896.06;;;7.34;100.00
6345;BME280;3205;42.666;23.264;2023-02-28T05:31:08;94890.75;;;7.25;100.00
6345;BME280;3205;42.666;23.264;2023-02-28T05:33:36;94903.06;;;7.38;100.00
6345;BME280;3205;42.666;23.264;2023-02-28T05:36:02;94907.16;;;7.52;100.00
6345;BME280;3205;42.666;23.264;2023-02-28T05:38:29;94909.56;;;7.62;100.00
6345;BME280;3205;42.666;23.264;2023-02-28T05:40:55;94909.66;;;7.57;100.00
6345;BME280;3205;42.666;23.264;2023-02-28T05:43:21;94914.75;;;7.54;100.00
6345;BME280;3205;42.666;23.264;2023-02-28T05:45:48;94917.28;;;7.59;100.00
6345;BME280;3205;42.666;23.264;2023-02-28T05:48:14;94913.13;;;7.66;100.00
6345;BME280;3205;42.666;23.264;2023-02-28T05:50:40;94913.72;;;7.63;100.00
6345;BME280;3205;42.666;23.264;2023-02-28T05:53:08;94923.00;;;7.61;100.00
6345;BME280;3205;42.666;23.264;2023-02-28T05:55:35;94923.91;;;7.56;100.00
6345;BME280;3205;42.666;23.264;2023-02-28T05:58:02;94921.56;;;7.55;100.00
6345;BME280;3205;42.666;23.264;2023-02-28T06:00:28;94918.56;;;7.70;100.00
6345;BME280;3205;42.666;23.264;2023-02-28T06:02:54;94922.59;;;7.67;100.00
6345;BME280;3205;42.666;23.264;2023-02-28T06:05:23;94914.16;;;7.57;100.00
6345;BME280;3205;42.666;23.264;2023-02-28T06:07:49;94917.28;;;7.59;100.00
6345;BME280;3205;42.666;23.264;2023-02-28T06:10:16;94919.19;;;7.45;100.00
6345;BME280;3205;42.666;23.264;2023-02-28T06:12:42;94912.56;;;7.47;100.00
6345;BME280;3205;42.666;23.264;2023-02-28T06:15:11;94923.13;;;7.56;100.00
6345;BME280;3205;42.666;23.264;2023-02-28T06:17:38;94919.13;;;7.58;100.00
6345;BME280;3205;42.666;23.264;2023-02-28T06:20:06;94920.38;;;7.61;100.00
6345;BME280;3205;42.666;23.264;2023-02-28T06:22:32;94921.63;;;7.63;100.00
6345;BME280;3205;42.666;23.264;2023-02-28T06:24:58;94921.38;;;7.73;100.00
6345;BME280;3205;42.666;23.264;2023-02-28T06:27:24;94919.09;;;7.80;100.00
6345;BME280;3205;42.666;23.264;2023-02-28T06:29:53;94928.84;;;8.10;100.00
6345;BME280;3205;42.666;23.264;2023-02-28T06:32:20;94928.53;;;8.11;100.00
6345;BME280;3205;42.666;23.264;2023-02-28T06:34:46;94931.56;;;8.18;100.00
6345;BME280;3205;42.666;23.264;2023-02-28T06:37:12;94943.03;;;8.22;100.00
6345;BME280;3205;42.666;23.264;2023-02-28T06:39:38;94947.69;;;8.25;100.00
6345;BME280;3205;42.666;23.264;2023-02-28T06:42:04;94949.13;;;8.40;100.00
6345;BME280;3205;42.666;23.264;2023-02-28T06:44:30;94943.72;;;8.45;100.00
6345;BME280;3205;42.666;23.264;2023-02-28T06:47:01;94947.16;;;8.45;100.00
6345;BME280;3205;42.666;23.264;2023-02-28T06:49:28;94955.06;;;8.45;100.00
6345;BME280;3205;42.666;23.264;2023-02-28T06:51:54;94953.81;;;8.43;100.00
6345;BME280;3205;42.666;23.264;2023-02-28T06:54:21;94956.13;;;8.44;100.00
6345;BME280;3205;42.666;23.264;2023-02-28T06:56:47;94956.44;;;8.43;100.00
6345;BME280;3205;42.666;23.264;2023-02-28T06:59:13;94959.66;;;8.40;100.00
6345;BME280;3205;42.666;23.264;2023-02-28T07:01:39;94960.47;;;8.40;100.00
6345;BME280;3205;42.666;23.264;2023-02-28T07:04:06;94954.25;;;8.45;100.00
6345;BME280;3205;42.666;23.264;2023-02-28T07:06:33;94945.41;;;8.32;100.00
6345;BME280;3205;42.666;23.264;2023-02-28T07:08:59;94950.50;;;8.29;100.00
6345;BME280;3205;42.666;23.264;2023-02-28T07:11:27;94954.97;;;8.28;100.00
6345;BME280;3205;42.666;23.264;2023-02-28T07:13:53;94950.28;;;8.17;100.00
6345;BME280;3205;42.666;23.264;2023-02-28T07:16:21;94949.31;;;8.13;100.00
6345;BME280;3205;42.666;23.264;2023-02-28T07:18:47;94945.97;;;8.21;100.00
6345;BME280;3205;42.666;23.264;2023-02-28T07:21:15;94951.44;;;8.33;100.00
6345;BME280;3205;42.666;23.264;2023-02-28T07:23:41;94951.25;;;8.29;100.00
6345;BME280;3205;42.666;23.264;2023-02-28T07:26:11;94955.88;;;8.24;100.00
6345;BME280;3205;42.666;23.264;2023-02-28T07:28:40;94952.63;;;8.18;100.00
6345;BME280;3205;42.666;23.264;2023-02-28T07:31:07;94956.03;;;8.27;100.00
6345;BME280;3205;42.666;23.264;2023-02-28T07:33:33;94961.75;;;8.21;100.00
6345;BME280;3205;42.666;23.264;2023-02-28T07:36:00;94953.56;;;8.22;100.00
6345;BME280;3205;42.666;23.264;2023-02-28T07:38:28;94953.72;;;8.26;100.00
6345;BME280;3205;42.666;23.264;2023-02-28T07:40:54;94958.22;;;8.25;100.00
6345;BME280;3205;42.666;23.264;2023-02-28T07:43:20;94962.69;;;8.25;100.00
6345;BME280;3205;42.666;23.264;2023-02-28T07:45:46;94961.97;;;8.33;100.00
6345;BME280;3205;42.666;23.264;2023-02-28T07:48:12;94949.88;;;8.32;100.00
6345;BME280;3205;42.666;23.264;2023-02-28T07:50:38;94953.16;;;8.37;100.00
6345;BME280;3205;42.666;23.264;2023-02-28T07:53:05;94946.81;;;8.38;100.00
6345;BME280;3205;42.666;23.264;2023-02-28T07:55:32;94951.75;;;8.40;100.00
6345;BME280;3205;42.666;23.264;2023-02-28T07:57:58;94948.06;;;8.41;100.00
6345;BME280;3205;42.666;23.264;2023-02-28T08:00:25;94941.72;;;8.50;100.00
6345;BME280;3205;42.666;23.264;2023-02-28T08:02:52;94943.59;;;8.50;100.00
6345;BME280;3205;42.666;23.264;2023-02-28T08:05:18;94947.31;;;8.57;100.00
6345;BME280;3205;42.666;23.264;2023-02-28T08:07:44;94946.97;;;8.42;100.00
6345;BME280;3205;42.666;23.264;2023-02-28T08:10:10;94943.03;;;8.31;100.00
6345;BME280;3205;42.666;23.264;2023-02-28T08:12:37;94934.78;;;8.54;100.00
6345;BME280;3205;42.666;23.264;2023-02-28T08:15:04;94945.03;;;8.64;100.00
6345;BME280;3205;42.666;23.264;2023-02-28T08:17:30;94950.75;;;8.58;100.00
6345;BME280;3205;42.666;23.264;2023-02-28T08:19:56;94959.25;;;8.46;100.00
6345;BME280;3205;42.666;23.264;2023-02-28T08:22:22;94954.31;;;8.62;100.00
6345;BME280;3205;42.666;23.264;2023-02-28T08:24:48;94954.69;;;8.85;100.00
6345;BME280;3205;42.666;23.264;2023-02-28T08:27:15;94955.16;;;8.96;100.00
6345;BME280;3205;42.666;23.264;2023-02-28T08:29:41;94959.69;;;9.04;100.00
6345;BME280;3205;42.666;23.264;2023-02-28T08:32:07;94957.19;;;8.99;100.00
6345;BME280;3205;42.666;23.264;2023-02-28T08:34:34;94962.63;;;9.11;100.00
6345;BME280;3205;42.666;23.264;2023-02-28T08:37:00;94965.59;;;9.26;100.00
6345;BME280;3205;42.666;23.264;2023-02-28T08:39:26;94967.78;;;9.41;100.00
6345;BME280;3205;42.666;23.264;2023-02-28T08:41:52;94973.53;;;9.52;100.00
6345;BME280;3205;42.666;23.264;2023-02-28T08:44:18;94970.28;;;9.55;100.00
6345;BME280;3205;42.666;23.264;2023-02-28T08:46:45;94966.72;;;9.59;100.00
6345;BME280;3205;42.666;23.264;2023-02-28T08:49:11;94961.25;;;9.64;100.00
6345;BME280;3205;42.666;23.264;2023-02-28T08:51:38;94961.41;;;9.76;100.00
6345;BME280;3205;42.666;23.264;2023-02-28T08:54:04;94961.88;;;9.53;100.00
6345;BME280;3205;42.666;23.264;2023-02-28T08:56:30;94973.66;;;9.80;100.00
6345;BME280;3205;42.666;23.264;2023-02-28T08:58:57;94972.84;;;9.97;100.00
6345;BME280;3205;42.666;23.264;2023-02-28T09:01:25;94982.19;;;10.03;100.00
6345;BME280;3205;42.666;23.264;2023-02-28T09:03:53;94973.78;;;9.92;100.00
6345;BME280;3205;42.666;23.264;2023-02-28T09:06:21;94980.63;;;9.93;100.00
6345;BME280;3205;42.666;23.264;2023-02-28T09:08:47;94971.78;;;9.89;100.00
6345;BME280;3205;42.666;23.264;2023-02-28T09:11:16;94973.31;;;9.90;100.00
6345;BME280;3205;42.666;23.264;2023-02-28T09:13:42;94980.00;;;9.88;100.00
6345;BME280;3205;42.666;23.264;2023-02-28T09:16:11;94970.38;;;9.92;100.00
6345;BME280;3205;42.666;23.264;2023-02-28T09:18:38;94966.84;;;9.71;100.00
6345;BME280;3205;42.666;23.264;2023-02-28T09:21:06;94979.41;;;9.74;100.00
6345;BME280;3205;42.666;23.264;2023-02-28T09:23:32;94970.25;;;9.71;100.00
6345;BME280;3205;42.666;23.264;2023-02-28T09:25:59;94968.09;;;9.65;100.00
6345;BME280;3205;42.666;23.264;2023-02-28T09:28:25;94964.00;;;9.84;100.00
6345;BME280;3205;42.666;23.264;2023-02-28T09:30:53;94963.53;;;10.08;100.00
6345;BME280;3205;42.666;23.264;2023-02-28T09:33:21;94965.19;;;10.21;100.00
6345;BME280;3205;42.666;23.264;2023-02-28T09:35:47;94964.34;;;10.45;100.00
6345;BME280;3205;42.666;23.264;2023-02-28T09:38:15;94973.56;;;10.68;100.00
6345;BME280;3205;42.666;23.264;2023-02-28T09:40:47;94973.63;;;10.60;100.00
6345;BME280;3205;42.666;23.264;2023-02-28T09:43:15;94974.13;;;10.82;100.00
6345;BME280;3205;42.666;23.264;2023-02-28T09:45:47;94961.50;;;11.16;100.00
6345;BME280;3205;42.666;23.264;2023-02-28T09:48:17;94974.44;;;11.59;100.00
6345;BME280;3205;42.666;23.264;2023-02-28T09:50:47;94968.31;;;11.99;100.00
6345;BME280;3205;42.666;23.264;2023-02-28T09:53:20;94971.53;;;12.04;100.00
6345;BME280;3205;42.666;23.264;2023-02-28T09:55:50;94983.78;;;11.77;100.00
6345;BME280;3205;42.666;23.264;2023-02-28T09:58:23;94973.00;;;11.82;100.00
6345;BME280;3205;42.666;23.264;2023-02-28T10:00:57;94965.44;;;11.92;100.00
6345;BME280;3205;42.666;23.264;2023-02-28T10:03:30;94975.78;;;11.85;100.00
6345;BME280;3205;42.666;23.264;2023-02-28T10:06:03;94963.09;;;11.90;100.00
6345;BME280;3205;42.666;23.264;2023-02-28T10:08:35;94965.97;;;11.97;100.00
6345;BME280;3205;42.666;23.264;2023-02-28T10:11:11;94959.41;;;12.03;100.00
6345;BME280;3205;42.666;23.264;2023-02-28T10:13:48;94951.03;;;12.13;100.00
6345;BME280;3205;42.666;23.264;2023-02-28T10:16:21;94949.47;;;12.24;100.00
6345;BME280;3205;42.666;23.264;2023-02-28T10:18:51;94953.97;;;12.44;100.00
6345;BME280;3205;42.666;23.264;2023-02-28T10:21:21;94947.78;;;12.64;100.00
6345;BME280;3205;42.666;23.264;2023-02-28T10:23:53;94948.66;;;12.80;100.00
6345;BME280;3205;42.666;23.264;2023-02-28T10:26:22;94950.13;;;12.89;100.00
6345;BME280;3205;42.666;23.264;2023-02-28T10:28:53;94946.25;;;12.99;100.00
6345;BME280;3205;42.666;23.264;2023-02-28T10:31:19;94944.69;;;13.10;100.00
6345;BME280;3205;42.666;23.264;2023-02-28T10:33:46;94944.91;;;13.17;100.00
6345;BME280;3205;42.666;23.264;2023-02-28T10:36:14;94937.72;;;13.17;100.00
6345;BME280;3205;42.666;23.264;2023-02-28T10:38:43;94935.22;;;12.97;100.00
6345;BME280;3205;42.666;23.264;2023-02-28T10:41:12;94928.78;;;13.10;100.00
6345;BME280;3205;42.666;23.264;2023-02-28T10:43:41;94920.94;;;13.52;100.00
6345;BME280;3205;42.666;23.264;2023-02-28T10:46:13;94915.56;;;14.19;100.00
6345;BME280;3205;42.666;23.264;2023-02-28T10:49:01;94915.56;;;14.19;100.00
6345;BME280;3205;42.666;23.264;2023-02-28T10:51:35;94910.59;;;13.90;100.00
6345;BME280;3205;42.666;23.264;2023-02-28T10:54:03;94903.78;;;13.50;100.00
6345;BME280;3205;42.666;23.264;2023-02-28T10:56:30;94908.25;;;13.34;100.00
6345;BME280;3205;42.666;23.264;2023-02-28T10:58:58;94904.22;;;13.52;100.00
6345;BME280;3205;42.666;23.264;2023-02-28T11:01:35;94908.88;;;13.43;100.00
6345;BME280;3205;42.666;23.264;2023-02-28T11:04:01;94892.28;;;13.07;100.00
6345;BME280;3205;42.666;23.264;2023-02-28T11:06:30;94895.16;;;12.66;100.00
6345;BME280;3205;42.666;23.264;2023-02-28T11:08:58;94886.13;;;12.91;100.00
6345;BME280;3205;42.666;23.264;2023-02-28T11:11:28;94885.13;;;13.34;100.00
6345;BME280;3205;42.666;23.264;2023-02-28T11:13:57;94882.66;;;13.41;100.00
6345;BME280;3205;42.666;23.264;2023-02-28T11:16:33;94877.94;;;13.62;100.00
6345;BME280;3205;42.666;23.264;2023-02-28T11:19:00;94870.50;;;13.68;100.00
6345;BME280;3205;42.666;23.264;2023-02-28T11:21:29;94875.47;;;13.97;100.00
6345;BME280;3205;42.666;23.264;2023-02-28T11:24:02;94876.59;;;13.68;100.00
6345;BME280;3205;42.666;23.264;2023-02-28T11:26:38;94878.91;;;13.15;100.00
6345;BME280;3205;42.666;23.264;2023-02-28T11:29:20;94882.31;;;13.16;100.00
6345;BME280;3205;42.666;23.264;2023-02-28T11:32:12;94872.56;;;13.20;100.00
6345;BME280;3205;42.666;23.264;2023-02-28T11:34:40;94869.88;;;12.92;100.00
6345;BME280;3205;42.666;23.264;2023-02-28T11:37:11;94863.56;;;12.85;100.00
6345;BME280;3205;42.666;23.264;2023-02-28T11:39:39;94862.22;;;13.03;100.00
6345;BME280;3205;42.666;23.264;2023-02-28T11:42:14;94879.03;;;12.83;100.00
6345;BME280;3205;42.666;23.264;2023-02-28T11:44:58;94859.94;;;12.65;100.00
6345;BME280;3205;42.666;23.264;2023-02-28T11:47:33;94855.53;;;12.46;100.00
6345;BME280;3205;42.666;23.264;2023-02-28T11:50:20;94860.16;;;12.72;100.00
6345;BME280;3205;42.666;23.264;2023-02-28T11:52:52;94855.50;;;12.69;100.00
6345;BME280;3205;42.666;23.264;2023-02-28T11:55:23;94858.16;;;12.69;100.00
6345;BME280;3205;42.666;23.264;2023-02-28T11:58:11;94861.56;;;12.58;100.00
6345;BME280;3205;42.666;23.264;2023-02-28T12:01:01;94842.38;;;12.49;100.00
6345;BME280;3205;42.666;23.264;2023-02-28T12:03:39;94839.72;;;12.61;100.00
6345;BME280;3205;42.666;23.264;2023-02-28T12:06:15;94845.31;;;12.83;100.00
6345;BME280;3205;42.666;23.264;2023-02-28T12:08:51;94847.22;;;12.71;100.00
6345;BME280;3205;42.666;23.264;2023-02-28T12:11:27;94850.28;;;12.73;100.00
6345;BME280;3205;42.666;23.264;2023-02-28T12:14:14;94846.09;;;12.72;100.00
6345;BME280;3205;42.666;23.264;2023-02-28T12:16:52;94841.25;;;12.62;100.00
6345;BME280;3205;42.666;23.264;2023-02-28T12:19:23;94843.81;;;12.47;100.00
6345;BME280;3205;42.666;23.264;2023-02-28T12:22:14;94841.94;;;12.47;100.00
6345;BME280;3205;42.666;23.264;2023-02-28T12:25:16;94839.03;;;12.52;100.00
6345;BME280;3205;42.666;23.264;2023-02-28T12:27:47;94847.22;;;12.47;100.00
6345;BME280;3205;42.666;23.264;2023-02-28T12:30:17;94855.53;;;12.34;100.00
6345;BME280;3205;42.666;23.264;2023-02-28T12:32:48;94845.78;;;12.61;100.00
6345;BME280;3205;42.666;23.264;2023-02-28T12:35:20;94842.38;;;12.25;100.00
6345;BME280;3205;42.666;23.264;2023-02-28T12:37:52;94840.06;;;12.36;100.00
6345;BME280;3205;42.666;23.264;2023-02-28T12:40:23;94846.88;;;12.49;100.00
6345;BME280;3205;42.666;23.264;2023-02-28T12:42:53;94850.44;;;12.64;100.00
6345;BME280;3205;42.666;23.264;2023-02-28T12:45:24;94841.69;;;12.52;100.00
6345;BME280;3205;42.666;23.264;2023-02-28T12:47:55;94835.53;;;12.36;100.00
6345;BME280;3205;42.666;23.264;2023-02-28T12:50:24;94832.88;;;12.36;100.00
6345;BME280;3205;42.666;23.264;2023-02-28T12:52:54;94841.06;;;12.43;100.00
6345;BME280;3205;42.666;23.264;2023-02-28T12:55:29;94835.50;;;12.12;100.00
6345;BME280;3205;42.666;23.264;2023-02-28T12:58:05;94834.66;;;12.20;100.00
6345;BME280;3205;42.666;23.264;2023-02-28T13:00:36;94836.72;;;12.03;100.00
6345;BME280;3205;42.666;23.264;2023-02-28T13:03:37;94830.09;;;12.21;100.00
6345;BME280;3205;42.666;23.264;2023-02-28T13:06:29;94835.63;;;12.28;100.00
6345;BME280;3205;42.666;23.264;2023-02-28T13:09:04;94827.38;;;12.29;100.00
6345;BME280;3205;42.666;23.264;2023-02-28T13:11:32;94818.63;;;12.17;100.00
6345;BME280;3205;42.666;23.264;2023-02-28T13:14:02;94827.22;;;12.50;100.00
6345;BME280;3205;42.666;23.264;2023-02-28T13:16:48;94833.88;;;12.44;100.00
6345;BME280;3205;42.666;23.264;2023-02-28T13:19:19;94824.69;;;12.53;100.00
6345;BME280;3205;42.666;23.264;2023-02-28T13:21:50;94821.28;;;12.29;100.00
6345;BME280;3205;42.666;23.264;2023-02-28T13:24:41;94819.97;;;12.47;100.00